createdAt,value
2022-12-23T00:01:57.232Z,33.83
2022-12-23T00:04:24.802Z,32.47
2022-12-23T00:06:52.858Z,41.72
2022-12-23T00:09:21.267Z,42.92
2022-12-23T00:12:07.332Z,37.15
2022-12-23T00:14:52.908Z,35.28
2022-12-23T00:17:23.483Z,26.55
2022-12-23T00:19:50.850Z,26.95
2022-12-23T00:22:18.266Z,37.25
2022-12-23T00:24:45.711Z,35.38
2022-12-23T00:27:13.274Z,31.35
2022-12-23T00:29:40.746Z,30.27
2022-12-23T00:32:08.225Z,23.17
2022-12-23T00:34:35.770Z,28.52
2022-12-23T00:37:02.992Z,18.50
2022-12-23T00:39:54.627Z,26.35
2022-12-23T00:43:00.903Z,21.17
2022-12-23T00:45:28.294Z,26.85
2022-12-23T00:48:14.403Z,22.35
2022-12-23T00:50:41.992Z,36.05
2022-12-23T00:53:09.260Z,31.67
2022-12-23T00:55:36.508Z,26.13
2022-12-23T00:58:03.659Z,25.85
2022-12-23T01:00:58.046Z,23.15
2022-12-23T01:03:44.113Z,24.80
2022-12-23T01:06:11.598Z,27.38
2022-12-23T01:08:39.162Z,28.27
2022-12-23T01:11:10.183Z,21.38
2022-12-23T01:13:39.910Z,25.08
2022-12-23T01:16:17.677Z,34.17
2022-12-23T01:18:45.600Z,37.88
2022-12-23T01:21:13.219Z,31.42
2022-12-23T01:23:43.260Z,33.17
2022-12-23T01:26:12.159Z,32.65
2022-12-23T01:28:39.549Z,34.65
2022-12-23T01:31:10.812Z,36.20
2022-12-23T01:33:38.394Z,40.08
2022-12-23T01:36:08.715Z,30.25
2022-12-23T01:38:36.265Z,35.72
2022-12-23T01:41:05.116Z,29.50
2022-12-23T01:43:50.734Z,28.70
2022-12-23T01:46:19.223Z,37.05
2022-12-23T01:48:51.674Z,31.20
2022-12-23T01:51:26.220Z,30.40
2022-12-23T01:53:58.876Z,32.17
2022-12-23T01:56:37.200Z,40.97
2022-12-23T01:59:12.366Z,34.83
2022-12-23T02:01:58.422Z,27.27
2022-12-23T02:04:26.590Z,25.83
2022-12-23T02:07:13.108Z,36.97
2022-12-23T02:09:41.569Z,39.58
2022-12-23T02:12:39.236Z,32.00
2022-12-23T02:15:51.715Z,32.55
2022-12-23T02:18:25.177Z,27.50
2022-12-23T02:21:06.947Z,37.95
2022-12-23T02:24:02.493Z,30.80
2022-12-23T02:26:49.791Z,26.73
2022-12-23T02:29:29.364Z,31.48
2022-12-23T02:32:16.388Z,28.88
2022-12-23T02:34:51.549Z,31.02
2022-12-23T02:37:30.496Z,27.25
2022-12-23T02:40:06.084Z,31.65
2022-12-23T02:42:37.538Z,29.08
2022-12-23T02:45:19.890Z,37.03
2022-12-23T02:47:57.446Z,26.25
2022-12-23T02:50:30.255Z,31.10
2022-12-23T02:53:02.258Z,33.55
2022-12-23T02:55:34.886Z,22.50
2022-12-23T02:58:14.772Z,26.48
2022-12-23T03:00:44.488Z,22.13
2022-12-23T03:03:12.379Z,25.38
2022-12-23T03:05:46.307Z,26.92
2022-12-23T03:08:23.375Z,25.60
2022-12-23T03:11:03.464Z,28.55
2022-12-23T03:13:43.117Z,24.10
2022-12-23T03:16:32.404Z,26.33
2022-12-23T03:19:21.369Z,25.20
2022-12-23T03:22:09.659Z,20.75
2022-12-23T03:24:49.330Z,24.45
2022-12-23T03:27:25.320Z,27.85
2022-12-23T03:30:03.068Z,28.88
2022-12-23T03:32:35.746Z,25.15
2022-12-23T03:35:06.679Z,20.38
2022-12-23T03:37:39.225Z,22.48
2022-12-23T03:40:17.398Z,25.15
2022-12-23T03:42:48.139Z,21.17
2022-12-23T03:45:42.728Z,23.63
2022-12-23T03:48:50.362Z,24.52
2022-12-23T03:51:33.871Z,19.65
2022-12-23T03:56:40.515Z,31.15
2022-12-23T03:59:37.502Z,17.20
2022-12-23T04:02:26.862Z,28.38
2022-12-23T04:05:03.213Z,31.75
2022-12-23T04:07:36.763Z,18.45
2022-12-23T04:10:05.382Z,29.13
2022-12-23T04:12:33.454Z,29.48
2022-12-23T04:15:00.982Z,21.80
2022-12-23T04:17:29.242Z,26.75
2022-12-23T04:19:56.873Z,21.08
2022-12-23T04:22:24.214Z,18.02
2022-12-23T04:24:52.124Z,19.48
2022-12-23T04:27:19.869Z,20.15
2022-12-23T04:29:47.606Z,15.30
2022-12-23T04:32:15.042Z,16.15
2022-12-23T04:34:42.170Z,20.50
2022-12-23T04:37:11.127Z,23.05
2022-12-23T04:39:38.423Z,26.73
2022-12-23T04:42:05.897Z,28.17
2022-12-23T04:44:33.588Z,24.13
2022-12-23T04:47:00.989Z,28.75
2022-12-23T04:49:29.307Z,17.45
2022-12-23T04:51:56.668Z,26.92
2022-12-23T04:54:24.057Z,23.55
2022-12-23T04:56:51.939Z,27.98
2022-12-23T04:59:19.281Z,26.08
2022-12-23T05:01:47.112Z,18.77
2022-12-23T05:04:14.756Z,20.13
2022-12-23T05:06:42.403Z,25.13
2022-12-23T05:09:09.860Z,16.98
2022-12-23T05:11:42.055Z,21.17
2022-12-23T05:14:13.474Z,30.98
2022-12-23T05:16:41.214Z,23.65
2022-12-23T05:19:08.876Z,21.23
2022-12-23T05:21:36.193Z,23.30
2022-12-23T05:24:03.564Z,25.50
2022-12-23T05:26:30.831Z,25.02
2022-12-23T05:28:58.215Z,16.17
2022-12-23T05:31:25.382Z,19.52
2022-12-23T05:33:53.529Z,20.63
2022-12-23T05:36:20.882Z,22.63
2022-12-23T05:38:49.044Z,19.77
2022-12-23T05:41:17.383Z,20.30
2022-12-23T05:43:44.589Z,33.97
2022-12-23T05:46:12.680Z,294.60
2022-12-23T05:48:40.261Z,96.40
2022-12-23T05:51:07.789Z,65.88
2022-12-23T05:53:35.115Z,52.45
2022-12-23T05:56:06.751Z,79.30
2022-12-23T05:58:34.412Z,62.42
2022-12-23T06:01:05.384Z,36.80
2022-12-23T06:03:32.979Z,27.67
2022-12-23T06:06:00.668Z,30.20
2022-12-23T06:08:28.054Z,24.73
2022-12-23T06:10:55.821Z,23.88
2022-12-23T06:13:23.214Z,23.48
2022-12-23T06:15:50.815Z,17.75
2022-12-23T06:18:18.176Z,23.80
2022-12-23T06:20:48.959Z,22.88
2022-12-23T06:23:16.706Z,55.22
2022-12-23T06:25:43.934Z,51.60
2022-12-23T06:28:11.251Z,49.50
2022-12-23T06:30:38.998Z,40.88
2022-12-23T06:33:06.689Z,59.63
2022-12-23T06:35:34.103Z,47.25
2022-12-23T06:38:01.786Z,46.22
2022-12-23T06:40:29.890Z,30.25
2022-12-23T06:42:58.135Z,30.33
2022-12-23T06:45:25.503Z,29.10
2022-12-23T06:47:52.827Z,28.13
2022-12-23T06:50:21.079Z,29.58
2022-12-23T06:52:49.391Z,25.02
2022-12-23T06:55:16.732Z,27.48
2022-12-23T06:57:43.984Z,26.55
2022-12-23T07:00:12.234Z,26.02
2022-12-23T07:02:40.233Z,34.13
2022-12-23T07:05:07.825Z,23.20
2022-12-23T07:07:35.257Z,26.75
2022-12-23T07:10:02.931Z,24.05
2022-12-23T07:12:30.831Z,19.75
2022-12-23T07:14:58.495Z,20.70
2022-12-23T07:17:25.858Z,18.95
2022-12-23T07:19:53.119Z,18.33
2022-12-23T07:22:20.523Z,29.13
2022-12-23T07:24:47.878Z,35.60
2022-12-23T07:27:15.216Z,24.98
2022-12-23T07:29:44.148Z,33.33
2022-12-23T07:32:11.911Z,29.63
2022-12-23T07:34:39.090Z,45.83
2022-12-23T07:37:06.441Z,42.50
2022-12-23T07:39:35.226Z,60.28
2022-12-23T07:42:33.936Z,45.25
2022-12-23T07:44:49.955Z,60.38
2022-12-23T07:47:17.305Z,79.07
2022-12-23T07:49:44.527Z,46.58
2022-12-23T07:52:12.170Z,46.25
2022-12-23T07:54:39.680Z,20.98
2022-12-23T07:57:06.942Z,24.95
2022-12-23T07:59:34.191Z,14.65
2022-12-23T08:02:02.124Z,21.15
2022-12-23T08:04:29.665Z,15.98
2022-12-23T08:06:57.082Z,15.30
2022-12-23T08:09:24.607Z,17.33
2022-12-23T08:11:51.915Z,15.43
2022-12-23T08:14:19.270Z,20.48
2022-12-23T08:16:48.343Z,15.75
2022-12-23T08:19:15.789Z,16.02
2022-12-23T08:21:43.026Z,21.92
2022-12-23T08:24:11.782Z,17.05
2022-12-23T08:26:39.453Z,19.75
2022-12-23T08:29:06.728Z,15.98
2022-12-23T08:31:34.185Z,16.92
2022-12-23T08:34:02.129Z,19.98
2022-12-23T08:36:32.874Z,19.95
2022-12-23T08:39:02.927Z,16.08
2022-12-23T08:41:34.175Z,12.25
2022-12-23T08:44:01.882Z,27.52
2022-12-23T08:46:30.034Z,41.97
2022-12-23T08:48:57.512Z,36.95
2022-12-23T08:51:26.021Z,28.05
2022-12-23T08:54:00.574Z,37.67
2022-12-23T08:56:34.746Z,35.97
2022-12-23T08:59:03.276Z,40.65
2022-12-23T09:01:33.147Z,38.47
2022-12-23T09:04:07.988Z,50.45
2022-12-23T09:06:41.490Z,49.67
2022-12-23T09:09:11.425Z,49.60
2022-12-23T09:11:39.442Z,44.55
2022-12-23T09:14:09.036Z,38.35
2022-12-23T09:16:36.837Z,42.80
2022-12-23T09:19:05.173Z,80.13
2022-12-23T09:21:33.049Z,42.75
2022-12-23T09:24:00.475Z,24.60
2022-12-23T09:26:30.685Z,33.45
2022-12-23T09:28:58.212Z,34.88
2022-12-23T09:31:30.840Z,24.67
2022-12-23T09:34:03.978Z,37.60
2022-12-23T09:36:31.785Z,25.10
2022-12-23T09:38:59.807Z,24.77
2022-12-23T09:41:34.837Z,23.48
2022-12-23T09:44:15.135Z,29.58
2022-12-23T09:46:57.739Z,37.50
2022-12-23T09:49:25.567Z,19.13
2022-12-23T09:51:58.563Z,12.82
2022-12-23T09:54:32.129Z,11.75
2022-12-23T09:57:03.308Z,19.90
2022-12-23T09:59:49.375Z,15.63
2022-12-23T10:02:53.077Z,13.13
2022-12-23T10:05:57.127Z,14.82
2022-12-23T10:08:33.329Z,14.10
2022-12-23T10:11:07.277Z,16.42
2022-12-23T10:14:01.054Z,12.48
2022-12-23T10:19:01.974Z,14.35
2022-12-23T10:21:50.714Z,18.08
2022-12-23T10:24:24.582Z,16.02
2022-12-23T10:27:02.906Z,14.23
2022-12-23T10:29:34.396Z,15.23
2022-12-23T10:32:03.022Z,11.30
2022-12-23T10:34:52.055Z,17.95
2022-12-23T10:37:54.719Z,15.77
2022-12-23T10:40:46.817Z,13.82
2022-12-23T10:43:23.930Z,11.98
2022-12-23T10:45:54.299Z,17.45
2022-12-23T10:48:53.539Z,13.45
2022-12-23T10:51:28.656Z,15.45
2022-12-23T10:54:03.277Z,13.07
2022-12-23T10:56:31.602Z,24.33
2022-12-23T10:59:01.558Z,18.73
2022-12-23T11:01:32.925Z,12.02
2022-12-23T11:04:03.203Z,15.77
2022-12-23T11:06:37.184Z,17.02
2022-12-23T11:09:06.541Z,12.38
2022-12-23T11:12:02.970Z,14.73
2022-12-23T11:14:36.684Z,14.27
2022-12-23T11:17:06.694Z,9.45
2022-12-23T11:19:34.652Z,13.15
2022-12-23T11:22:02.647Z,16.38
2022-12-23T11:24:39.589Z,11.18
2022-12-23T11:27:14.760Z,10.05
2022-12-23T11:29:54.986Z,10.85
2022-12-23T11:32:25.926Z,17.35
2022-12-23T11:34:54.934Z,14.45
2022-12-23T11:37:43.478Z,10.77
2022-12-23T11:40:27.244Z,14.05
2022-12-23T11:43:02.847Z,15.82
2022-12-23T11:45:35.967Z,17.13
2022-12-23T11:48:06.478Z,19.05
2022-12-23T11:50:40.068Z,12.95
2022-12-23T11:53:21.289Z,15.43
2022-12-23T11:56:12.397Z,15.77
2022-12-23T11:58:51.409Z,13.32
2022-12-23T12:01:22.154Z,12.10
2022-12-23T12:04:12.599Z,14.18
2022-12-23T12:06:48.398Z,12.85
2022-12-23T12:09:22.248Z,10.18
2022-12-23T12:12:04.371Z,15.07
2022-12-23T12:14:43.411Z,18.98
2022-12-23T12:17:33.767Z,19.33
2022-12-23T12:20:12.876Z,60.42
2022-12-23T12:22:50.006Z,34.22
2022-12-23T12:25:20.976Z,27.85
2022-12-23T12:27:56.749Z,29.50
2022-12-23T12:30:24.290Z,16.25
2022-12-23T12:33:13.977Z,24.85
2022-12-23T12:35:53.324Z,15.38
2022-12-23T12:38:27.534Z,17.83
2022-12-23T12:41:11.946Z,23.40
2022-12-23T12:43:47.583Z,24.00
2022-12-23T12:46:33.983Z,21.85
2022-12-23T12:49:09.778Z,21.63
2022-12-23T12:51:50.576Z,8.63
2022-12-23T12:54:56.669Z,11.70
2022-12-23T12:57:25.580Z,10.02
2022-12-23T13:00:05.582Z,10.13
2022-12-23T13:02:36.900Z,9.00
2022-12-23T13:05:38.799Z,5.07
2022-12-23T13:08:28.021Z,13.68
2022-12-23T13:11:10.324Z,12.70
2022-12-23T13:13:58.150Z,6.15
2022-12-23T13:16:25.402Z,6.53
2022-12-23T13:19:31.339Z,8.23
2022-12-23T13:22:16.967Z,6.93
2022-12-23T13:25:21.408Z,13.40
2022-12-23T13:27:59.018Z,12.10
2022-12-23T13:30:43.192Z,8.02
2022-12-23T13:33:23.151Z,11.45
2022-12-23T13:36:06.075Z,12.65
2022-12-23T13:38:52.756Z,10.02
2022-12-23T13:41:41.722Z,7.75
2022-12-23T13:44:11.126Z,8.60
2022-12-23T13:47:03.259Z,10.00
2022-12-23T13:50:01.679Z,6.03
2022-12-23T13:52:50.719Z,10.38
2022-12-23T13:55:49.209Z,7.50
2022-12-23T13:58:25.095Z,7.40
2022-12-23T14:01:08.652Z,8.18
2022-12-23T14:03:41.995Z,9.05
2022-12-23T14:06:43.469Z,10.13
2022-12-23T14:09:16.604Z,7.32
2022-12-23T14:11:45.907Z,10.50
2022-12-23T14:14:24.186Z,8.85
2022-12-23T14:17:09.922Z,11.40
2022-12-23T14:19:55.399Z,37.20
2022-12-23T14:22:42.029Z,96.78
2022-12-23T14:25:27.686Z,76.07
2022-12-23T14:28:19.789Z,40.67
2022-12-23T14:30:47.433Z,30.08
2022-12-23T14:33:28.233Z,28.85
2022-12-23T14:36:15.486Z,34.28
2022-12-23T14:38:43.186Z,32.20
2022-12-23T14:41:38.627Z,35.53
2022-12-23T14:44:41.571Z,51.13
2022-12-23T14:47:40.414Z,51.63
2022-12-23T14:50:32.941Z,66.47
2022-12-23T14:53:04.786Z,48.20
2022-12-23T14:55:32.976Z,36.63
2022-12-23T14:58:18.544Z,39.47
2022-12-23T15:01:01.140Z,35.15
2022-12-23T15:03:34.107Z,35.87
2022-12-23T15:06:06.520Z,30.30
2022-12-23T15:08:40.497Z,31.48
2022-12-23T15:11:36.704Z,38.90
2022-12-23T15:14:11.348Z,45.92
2022-12-23T15:16:40.865Z,23.92
2022-12-23T15:19:20.976Z,16.25
2022-12-23T15:21:56.527Z,15.02
2022-12-23T15:24:30.767Z,23.17
2022-12-23T15:27:25.164Z,15.07
2022-12-23T15:29:52.807Z,17.77
2022-12-23T15:32:23.838Z,15.00
2022-12-23T15:34:53.196Z,22.00
2022-12-23T15:37:27.991Z,17.50
2022-12-23T15:40:04.474Z,15.98
2022-12-23T15:42:38.770Z,21.45
2022-12-23T15:45:40.335Z,20.52
2022-12-23T15:48:26.307Z,31.23
2022-12-23T15:50:59.700Z,20.85
2022-12-23T15:53:34.747Z,23.25
2022-12-23T15:56:19.092Z,17.75
2022-12-23T15:58:48.127Z,16.33
2022-12-23T16:01:18.666Z,14.30
2022-12-23T16:03:58.749Z,12.98
2022-12-23T16:06:29.263Z,16.13
2022-12-23T16:08:59.724Z,12.63
2022-12-23T16:11:57.046Z,15.80
2022-12-23T16:14:35.843Z,17.48
2022-12-23T16:17:09.199Z,21.15
2022-12-23T16:19:56.674Z,24.00
2022-12-23T16:22:29.739Z,39.03
2022-12-23T16:24:57.063Z,39.00
2022-12-23T16:27:33.077Z,40.25
2022-12-23T16:30:04.202Z,41.63
2022-12-23T16:32:31.609Z,42.22
2022-12-23T16:35:11.089Z,46.92
2022-12-23T16:37:38.517Z,43.38
2022-12-23T16:40:14.710Z,39.03
2022-12-23T16:42:42.231Z,37.97
2022-12-23T16:45:13.412Z,41.03
2022-12-23T16:47:43.322Z,45.08
2022-12-23T16:50:15.122Z,42.03
2022-12-23T16:52:42.593Z,40.92
2022-12-23T16:55:16.414Z,37.53
2022-12-23T16:57:44.784Z,35.03
2022-12-23T17:00:16.921Z,28.58
2022-12-23T17:02:45.556Z,26.95
2022-12-23T17:05:18.299Z,22.95
2022-12-23T17:07:46.252Z,28.65
2022-12-23T17:10:15.564Z,22.00
2022-12-23T17:12:45.120Z,27.48
2022-12-23T17:15:21.657Z,22.65
2022-12-23T17:17:51.189Z,26.92
2022-12-23T17:20:21.488Z,22.70
2022-12-23T17:22:55.658Z,17.83
2022-12-23T17:25:26.407Z,19.23
2022-12-23T17:27:56.605Z,16.55
2022-12-23T17:30:27.294Z,15.93
2022-12-23T17:33:00.210Z,12.93
2022-12-23T17:35:27.552Z,14.23
2022-12-23T17:37:54.993Z,17.50
2022-12-23T17:40:22.704Z,22.42
2022-12-23T17:42:50.205Z,18.63
2022-12-23T17:45:30.498Z,21.90
2022-12-23T17:47:59.457Z,21.08
2022-12-23T17:50:27.684Z,23.75
2022-12-23T17:52:55.163Z,20.95
2022-12-23T17:55:25.627Z,15.20
2022-12-23T17:57:53.281Z,18.95
2022-12-23T18:00:31.909Z,16.30
2022-12-23T18:03:01.758Z,16.08
2022-12-23T18:05:32.578Z,21.23
2022-12-23T18:08:02.018Z,17.27
2022-12-23T18:10:34.176Z,15.45
2022-12-23T18:13:08.179Z,40.95
2022-12-23T18:15:42.498Z,39.78
2022-12-23T18:18:20.482Z,34.65
2022-12-23T18:20:56.375Z,40.00
2022-12-23T18:23:30.209Z,38.78
2022-12-23T18:25:58.650Z,37.78
2022-12-23T18:28:27.256Z,37.83
2022-12-23T18:30:57.663Z,59.95
2022-12-23T18:33:29.216Z,51.00
2022-12-23T18:35:57.283Z,50.90
2022-12-23T18:38:24.720Z,32.15
2022-12-23T18:40:54.489Z,37.38
2022-12-23T18:43:26.067Z,33.72
2022-12-23T18:45:54.229Z,34.05
2022-12-23T18:48:22.079Z,29.75
2022-12-23T18:50:49.833Z,29.42
2022-12-23T18:53:23.801Z,29.17
2022-12-23T18:55:52.287Z,19.08
2022-12-23T18:58:20.477Z,24.83
2022-12-23T19:00:49.714Z,24.58
2022-12-23T19:03:27.050Z,25.60
2022-12-23T19:05:55.749Z,25.00
2022-12-23T19:08:27.646Z,18.52
2022-12-23T19:10:56.076Z,17.97
2022-12-23T19:13:24.017Z,11.23
2022-12-23T19:15:52.341Z,15.10
2022-12-23T19:18:22.446Z,17.60
2022-12-23T19:20:50.672Z,32.63
2022-12-23T19:23:18.469Z,31.50
2022-12-23T19:25:54.593Z,108.68
2022-12-23T19:28:24.316Z,116.15
2022-12-23T19:30:51.721Z,112.82
2022-12-23T19:33:20.042Z,163.55
2022-12-23T19:35:47.833Z,141.02
2022-12-23T19:38:15.362Z,126.90
2022-12-23T19:40:43.094Z,91.57
2022-12-23T19:43:10.640Z,88.00
2022-12-23T19:45:38.084Z,118.05
2022-12-23T19:48:05.870Z,75.63
2022-12-23T19:50:33.485Z,102.20
2022-12-23T19:53:01.218Z,60.05
2022-12-23T19:55:28.555Z,27.13
2022-12-23T19:57:55.843Z,20.73
2022-12-23T20:00:23.030Z,26.38
2022-12-23T20:02:58.457Z,30.38
2022-12-23T20:05:26.454Z,27.45
2022-12-23T20:07:53.971Z,19.00
2022-12-23T20:10:21.340Z,51.33
2022-12-23T20:12:48.766Z,103.75
2022-12-23T20:15:16.108Z,79.65
2022-12-23T20:17:44.444Z,111.40
2022-12-23T20:20:12.107Z,155.30
2022-12-23T20:22:39.406Z,109.07
2022-12-23T20:25:08.100Z,95.70
2022-12-23T20:27:41.655Z,127.75
2022-12-23T20:30:10.879Z,152.93
2022-12-23T20:32:38.132Z,176.40
2022-12-23T20:35:05.948Z,131.60
2022-12-23T20:37:34.827Z,110.03
2022-12-23T20:40:02.085Z,84.40
2022-12-23T20:42:31.532Z,40.55
2022-12-23T20:44:58.895Z,25.88
2022-12-23T20:47:27.739Z,30.48
2022-12-23T20:49:57.224Z,75.07
2022-12-23T20:52:26.384Z,58.67
2022-12-23T20:54:57.495Z,50.17
2022-12-23T20:57:25.586Z,38.40
2022-12-23T20:59:52.770Z,30.70
2022-12-23T21:02:20.613Z,19.00
2022-12-23T21:04:47.999Z,27.10
2022-12-23T21:07:15.917Z,12.43
2022-12-23T21:09:43.279Z,28.10
2022-12-23T21:12:10.541Z,25.60
2022-12-23T21:14:37.808Z,42.13
2022-12-23T21:17:06.339Z,60.33
2022-12-23T21:19:35.573Z,74.93
2022-12-23T21:22:04.907Z,70.70
2022-12-23T21:24:32.850Z,55.75
2022-12-23T21:27:00.385Z,41.58
2022-12-23T21:29:28.012Z,24.90
2022-12-23T21:31:55.786Z,36.22
2022-12-23T21:34:23.358Z,27.83
2022-12-23T21:36:50.798Z,27.17
2022-12-23T21:39:18.748Z,27.67
2022-12-23T21:41:46.272Z,26.98
2022-12-23T21:44:16.809Z,41.58
2022-12-23T21:46:44.282Z,42.20
2022-12-23T21:49:11.879Z,32.38
2022-12-23T21:51:41.333Z,22.73
2022-12-23T21:54:11.176Z,26.40
2022-12-23T21:56:39.820Z,23.40
2022-12-23T21:59:12.146Z,23.65
2022-12-23T22:01:40.091Z,18.58
2022-12-23T22:04:07.905Z,15.68
2022-12-23T22:06:39.550Z,19.92
2022-12-23T22:09:09.604Z,23.30
2022-12-23T22:11:38.355Z,22.92
2022-12-23T22:14:08.709Z,14.18
2022-12-23T22:16:37.176Z,23.67
2022-12-23T22:19:06.164Z,22.73
2022-12-23T22:21:35.038Z,21.10
2022-12-23T22:24:03.342Z,21.20
2022-12-23T22:26:32.708Z,20.45
2022-12-23T22:29:04.412Z,13.73
2022-12-23T22:31:35.687Z,17.65
2022-12-23T22:34:04.268Z,24.38
2022-12-23T22:36:32.221Z,24.70
2022-12-23T22:39:02.018Z,15.38
2022-12-23T22:41:31.024Z,25.10
2022-12-23T22:43:59.717Z,21.50
2022-12-23T22:46:28.315Z,22.92
2022-12-23T22:48:56.861Z,19.30
2022-12-23T22:51:28.083Z,30.48
2022-12-23T22:53:55.927Z,24.73
2022-12-23T22:56:24.433Z,21.13
2022-12-23T22:58:52.910Z,20.42
2022-12-23T23:01:31.947Z,27.15
2022-12-23T23:04:01.782Z,24.27
2022-12-23T23:06:30.968Z,25.58
2022-12-23T23:08:58.774Z,23.35
2022-12-23T23:11:27.941Z,15.45
2022-12-23T23:13:56.146Z,17.40
2022-12-23T23:16:25.017Z,15.23
2022-12-23T23:18:53.523Z,21.90
2022-12-23T23:21:25.557Z,19.95
2022-12-23T23:23:56.670Z,20.20
2022-12-23T23:26:28.071Z,24.75
2022-12-23T23:28:56.356Z,33.00
2022-12-23T23:31:42.412Z,22.27
2022-12-23T23:34:10.887Z,22.60
2022-12-23T23:36:39.804Z,23.10
2022-12-23T23:39:07.293Z,17.95
2022-12-23T23:41:36.143Z,18.65
2022-12-23T23:44:03.754Z,21.48
2022-12-23T23:46:32.254Z,15.02
2022-12-23T23:48:59.920Z,17.85
2022-12-23T23:51:27.704Z,24.23
2022-12-23T23:53:55.170Z,21.42
2022-12-23T23:56:25.664Z,15.43
2022-12-23T23:58:54.067Z,20.05
